createdAt,value
2023-01-28T00:02:23.821Z,40.22
2023-01-28T00:04:55.761Z,40.25
2023-01-28T00:07:28.068Z,40.28
2023-01-28T00:09:59.993Z,40.30
2023-01-28T00:12:31.915Z,40.34
2023-01-28T00:15:04.427Z,40.37
2023-01-28T00:17:37.366Z,40.40
2023-01-28T00:20:09.937Z,40.43
2023-01-28T00:22:41.829Z,40.46
2023-01-28T00:25:14.087Z,40.50
2023-01-28T00:27:46.379Z,40.52
2023-01-28T00:30:21.893Z,40.54
2023-01-28T00:32:55.605Z,40.58
2023-01-28T00:35:27.596Z,40.59
2023-01-28T00:38:00.553Z,40.63
2023-01-28T00:40:33.172Z,40.66
2023-01-28T00:43:05.124Z,40.68
2023-01-28T00:45:37.468Z,40.70
2023-01-28T00:48:09.609Z,40.72
2023-01-28T00:50:41.698Z,40.75
2023-01-28T00:53:13.590Z,40.76
2023-01-28T00:55:45.449Z,40.80
2023-01-28T00:58:17.439Z,40.84
2023-01-28T01:00:49.307Z,40.87
2023-01-28T01:03:22.374Z,40.89
2023-01-28T01:05:57.494Z,40.91
2023-01-28T01:08:35.240Z,40.93
2023-01-28T01:11:08.779Z,40.95
2023-01-28T01:13:40.924Z,40.98
2023-01-28T01:16:17.298Z,41.01
2023-01-28T01:18:50.595Z,41.02
2023-01-28T01:21:26.226Z,41.05
2023-01-28T01:23:58.574Z,41.08
2023-01-28T01:26:30.849Z,41.11
2023-01-28T01:29:02.746Z,41.13
2023-01-28T01:31:34.728Z,41.16
2023-01-28T01:34:06.651Z,41.19
2023-01-28T01:36:38.566Z,41.20
2023-01-28T01:39:13.331Z,41.22
2023-01-28T01:41:46.143Z,41.24
2023-01-28T01:44:52.287Z,41.27
2023-01-28T01:47:41.495Z,41.18
2023-01-28T01:50:24.472Z,41.24
2023-01-28T01:53:01.174Z,41.27
2023-01-28T01:55:37.608Z,41.31
2023-01-28T01:58:13.224Z,41.35
2023-01-28T02:00:45.228Z,41.38
2023-01-28T02:03:20.120Z,41.39
2023-01-28T02:05:52.109Z,41.40
2023-01-28T02:08:25.942Z,41.43
2023-01-28T02:11:02.535Z,41.44
2023-01-28T02:13:50.092Z,41.46
2023-01-28T02:16:22.606Z,41.45
2023-01-28T02:18:54.546Z,41.50
2023-01-28T02:21:50.883Z,41.54
2023-01-28T02:24:29.926Z,41.49
2023-01-28T02:27:14.208Z,41.55
2023-01-28T02:29:58.490Z,41.56
2023-01-28T02:33:02.923Z,41.57
2023-01-28T02:35:50.062Z,41.55
2023-01-28T02:38:24.720Z,41.61
2023-01-28T02:41:05.988Z,41.66
2023-01-28T02:43:43.810Z,41.66
2023-01-28T02:46:53.486Z,41.68
2023-01-28T02:49:39.648Z,41.63
2023-01-28T02:52:43.830Z,41.74
2023-01-28T02:55:21.418Z,41.78
2023-01-28T02:58:06.831Z,41.88
2023-01-28T03:00:48.892Z,41.88
2023-01-28T03:03:33.601Z,41.85
2023-01-28T03:06:19.075Z,41.79
2023-01-28T03:09:19.325Z,41.70
2023-01-28T03:12:32.237Z,41.51
2023-01-28T03:15:39.669Z,41.32
2023-01-28T03:18:39.317Z,41.08
2023-01-28T03:21:39.684Z,40.79
2023-01-28T03:24:40.419Z,40.48
2023-01-28T03:27:48.727Z,40.13
2023-01-28T03:30:46.970Z,39.77
2023-01-28T03:33:44.309Z,39.39
2023-01-28T03:36:34.967Z,39.01
2023-01-28T03:39:07.496Z,38.67
2023-01-28T03:41:39.517Z,38.29
2023-01-28T03:44:30.165Z,38.03
2023-01-28T03:47:04.677Z,37.87
2023-01-28T03:49:36.699Z,37.59
2023-01-28T03:52:09.868Z,37.38
2023-01-28T03:54:41.653Z,37.30
2023-01-28T03:57:19.206Z,37.54
2023-01-28T03:59:52.881Z,37.07
2023-01-28T04:02:27.175Z,36.87
2023-01-28T04:04:59.155Z,36.74
2023-01-28T04:07:31.130Z,36.65
2023-01-28T04:10:17.442Z,36.66
2023-01-28T04:13:00.380Z,36.58
2023-01-28T04:15:32.757Z,36.49
2023-01-28T04:18:04.765Z,36.43
2023-01-28T04:20:39.491Z,36.43
2023-01-28T04:23:11.426Z,36.40
2023-01-28T04:25:43.367Z,36.38
2023-01-28T04:28:16.172Z,36.37
2023-01-28T04:30:48.280Z,36.38
2023-01-28T04:33:40.172Z,36.46
2023-01-28T04:36:31.815Z,36.47
2023-01-28T04:39:10.866Z,36.47
2023-01-28T04:41:42.790Z,36.47
2023-01-28T04:44:36.102Z,36.54
2023-01-28T04:47:21.578Z,36.57
2023-01-28T04:50:15.885Z,36.62
2023-01-28T04:53:05.020Z,36.65
2023-01-28T04:55:55.419Z,36.69
2023-01-28T04:58:27.742Z,36.71
2023-01-28T05:01:04.485Z,36.74
2023-01-28T05:03:37.570Z,36.78
2023-01-28T05:06:10.744Z,36.82
2023-01-28T05:08:46.802Z,36.87
2023-01-28T05:11:20.327Z,36.91
2023-01-28T05:13:55.936Z,36.93
2023-01-28T05:16:32.266Z,36.95
2023-01-28T05:19:04.320Z,36.96
2023-01-28T05:21:42.589Z,36.92
2023-01-28T05:24:25.742Z,36.90
2023-01-28T05:26:59.094Z,36.90
2023-01-28T05:29:31.770Z,36.71
2023-01-28T05:32:04.719Z,36.59
2023-01-28T05:34:36.933Z,36.45
2023-01-28T05:37:14.934Z,36.35
2023-01-28T05:39:46.930Z,36.18
2023-01-28T05:42:21.073Z,36.01
2023-01-28T05:45:01.287Z,35.87
2023-01-28T05:48:02.198Z,35.73
2023-01-28T05:51:09.856Z,35.58
2023-01-28T05:53:44.111Z,35.31
2023-01-28T05:56:16.163Z,35.14
2023-01-28T05:58:48.193Z,34.99
2023-01-28T06:01:20.871Z,34.85
2023-01-28T06:03:56.529Z,34.72
2023-01-28T06:06:28.767Z,34.65
2023-01-28T06:09:00.621Z,34.82
2023-01-28T06:11:34.853Z,34.40
2023-01-28T06:14:08.831Z,34.29
2023-01-28T06:16:55.558Z,34.25
2023-01-28T06:19:43.187Z,34.15
2023-01-28T06:22:15.438Z,34.00
2023-01-28T06:24:47.515Z,33.94
2023-01-28T06:27:19.490Z,33.90
2023-01-28T06:29:51.855Z,33.84
2023-01-28T06:32:23.771Z,33.85
2023-01-28T06:34:57.648Z,33.83
2023-01-28T06:37:29.589Z,33.84
2023-01-28T06:40:01.514Z,33.83
2023-01-28T06:42:33.926Z,33.85
2023-01-28T06:45:06.235Z,33.86
2023-01-28T06:47:41.280Z,33.89
2023-01-28T06:50:13.685Z,33.94
2023-01-28T06:52:45.886Z,33.96
2023-01-28T06:55:17.839Z,33.99
2023-01-28T06:57:49.758Z,34.04
2023-01-28T07:00:21.882Z,34.07
2023-01-28T07:02:57.185Z,34.12
2023-01-28T07:05:29.221Z,34.18
2023-01-28T07:08:02.477Z,34.23
2023-01-28T07:10:34.442Z,34.29
2023-01-28T07:13:06.376Z,34.33
2023-01-28T07:15:38.252Z,34.39
2023-01-28T07:18:10.193Z,34.44
2023-01-28T07:20:42.734Z,34.48
2023-01-28T07:23:14.660Z,34.57
2023-01-28T07:25:46.534Z,34.61
2023-01-28T07:28:21.811Z,34.69
2023-01-28T07:30:54.353Z,34.75
2023-01-28T07:33:26.258Z,34.82
2023-01-28T07:35:58.153Z,34.89
2023-01-28T07:38:30.061Z,34.94
2023-01-28T07:41:01.974Z,35.00
2023-01-28T07:43:33.868Z,35.07
2023-01-28T07:46:06.202Z,35.14
2023-01-28T07:48:38.113Z,35.19
2023-01-28T07:51:10.027Z,35.25
2023-01-28T07:53:41.946Z,35.31
2023-01-28T07:56:13.953Z,35.38
2023-01-28T07:58:45.896Z,35.44
2023-01-28T08:01:18.652Z,35.52
2023-01-28T08:03:50.724Z,35.58
2023-01-28T08:06:22.626Z,35.63
2023-01-28T08:08:54.603Z,35.72
2023-01-28T08:11:26.670Z,35.76
2023-01-28T08:13:58.786Z,35.81
2023-01-28T08:16:31.446Z,35.89
2023-01-28T08:19:03.399Z,35.94
2023-01-28T08:21:35.315Z,35.99
2023-01-28T08:24:07.492Z,36.04
2023-01-28T08:26:39.492Z,36.10
2023-01-28T08:29:11.404Z,36.17
2023-01-28T08:31:43.528Z,36.21
2023-01-28T08:34:15.460Z,36.27
2023-01-28T08:36:47.427Z,36.34
2023-01-28T08:39:19.327Z,36.39
2023-01-28T08:41:51.240Z,36.41
2023-01-28T08:44:23.136Z,36.44
2023-01-28T08:46:55.058Z,36.47
2023-01-28T08:49:27.104Z,36.48
2023-01-28T08:51:58.961Z,36.46
2023-01-28T08:54:31.090Z,36.42
2023-01-28T08:57:03.930Z,36.34
2023-01-28T08:59:35.751Z,36.28
2023-01-28T09:02:10.590Z,36.20
2023-01-28T09:04:46.233Z,36.05
2023-01-28T09:07:18.099Z,35.91
2023-01-28T09:09:50.016Z,35.77
2023-01-28T09:12:21.935Z,35.62
2023-01-28T09:14:54.463Z,35.43
2023-01-28T09:17:26.433Z,35.27
2023-01-28T09:19:58.460Z,35.10
2023-01-28T09:22:30.467Z,34.91
2023-01-28T09:25:02.417Z,34.75
2023-01-28T09:27:34.289Z,34.57
2023-01-28T09:30:07.375Z,34.43
2023-01-28T09:32:39.736Z,34.29
2023-01-28T09:35:12.105Z,34.16
2023-01-28T09:37:44.138Z,34.03
2023-01-28T09:40:30.577Z,33.93
2023-01-28T09:43:27.815Z,33.90
2023-01-28T09:46:03.173Z,33.85
2023-01-28T09:48:47.927Z,33.70
2023-01-28T09:51:41.343Z,33.67
2023-01-28T09:54:16.760Z,33.73
2023-01-28T09:56:51.963Z,33.90
2023-01-28T09:59:23.941Z,33.61
2023-01-28T10:02:12.816Z,33.55
2023-01-28T10:04:54.900Z,33.58
2023-01-28T10:07:57.688Z,33.56
2023-01-28T10:10:34.814Z,33.61
2023-01-28T10:13:21.602Z,33.55
2023-01-28T10:16:22.578Z,33.58
2023-01-28T10:19:03.103Z,33.65
2023-01-28T10:22:00.181Z,33.62
2023-01-28T10:24:39.937Z,33.69
2023-01-28T10:27:21.780Z,33.68
2023-01-28T10:29:53.787Z,33.72
2023-01-28T10:32:37.372Z,33.75
2023-01-28T10:35:09.395Z,33.82
2023-01-28T10:37:41.465Z,33.85
2023-01-28T10:40:16.685Z,33.88
2023-01-28T10:42:48.972Z,33.95
2023-01-28T10:45:24.778Z,34.00
2023-01-28T10:48:02.101Z,34.07
2023-01-28T10:50:35.518Z,34.12
2023-01-28T10:53:07.487Z,34.18
2023-01-28T10:56:00.451Z,34.23
2023-01-28T10:58:36.475Z,34.30
2023-01-28T11:01:08.637Z,34.37
2023-01-28T11:03:41.587Z,34.42
2023-01-28T11:06:23.730Z,34.48
2023-01-28T11:08:56.259Z,34.56
2023-01-28T11:11:30.081Z,34.60
2023-01-28T11:14:02.164Z,34.67
2023-01-28T11:16:34.355Z,34.73
2023-01-28T11:19:06.567Z,34.78
2023-01-28T11:21:38.584Z,34.84
2023-01-28T11:24:21.236Z,34.90
2023-01-28T11:26:55.506Z,34.96
2023-01-28T11:29:35.095Z,35.03
2023-01-28T11:32:16.495Z,35.09
2023-01-28T11:34:53.434Z,35.14
2023-01-28T11:37:26.631Z,35.21
2023-01-28T11:40:20.568Z,35.27
2023-01-28T11:42:59.371Z,35.31
2023-01-28T11:45:46.351Z,35.37
2023-01-28T11:48:30.386Z,35.43
2023-01-28T11:51:31.959Z,35.48
2023-01-28T11:54:19.306Z,35.51
2023-01-28T11:57:12.917Z,35.58
2023-01-28T11:59:47.377Z,35.61
2023-01-28T12:02:32.666Z,35.68
2023-01-28T12:05:21.378Z,35.70
2023-01-28T12:08:26.483Z,35.74
2023-01-28T12:11:47.544Z,35.78
2023-01-28T12:14:43.994Z,35.83
2023-01-28T12:17:47.165Z,35.92
2023-01-28T12:20:23.937Z,35.94
2023-01-28T12:23:27.881Z,36.04
2023-01-28T12:26:02.587Z,36.04
2023-01-28T12:28:56.846Z,36.10
2023-01-28T12:32:03.011Z,36.08
2023-01-28T12:35:03.985Z,36.07
2023-01-28T12:37:42.033Z,36.04
2023-01-28T12:40:27.267Z,36.01
2023-01-28T12:43:07.123Z,35.93
2023-01-28T12:45:48.894Z,35.84
2023-01-28T12:48:36.895Z,35.73
2023-01-28T12:51:22.871Z,35.62
2023-01-28T12:54:14.274Z,35.46
2023-01-28T12:56:55.018Z,35.32
2023-01-28T12:59:42.140Z,35.14
2023-01-28T13:02:14.099Z,34.97
2023-01-28T13:04:51.189Z,34.78
2023-01-28T13:08:04.619Z,34.63
2023-01-28T13:10:42.192Z,34.54
2023-01-28T13:13:36.213Z,34.31
2023-01-28T13:16:10.501Z,34.22
2023-01-28T13:18:45.482Z,34.04
2023-01-28T13:21:27.925Z,33.94
2023-01-28T13:24:03.064Z,33.86
2023-01-28T13:26:41.080Z,33.77
2023-01-28T13:29:30.193Z,33.71
2023-01-28T13:32:04.371Z,33.69
2023-01-28T13:34:44.396Z,33.61
2023-01-28T13:37:33.388Z,33.61
2023-01-28T13:40:31.886Z,33.60
2023-01-28T13:43:07.324Z,33.63
2023-01-28T13:45:39.471Z,33.57
2023-01-28T13:48:49.660Z,33.58
2023-01-28T13:51:25.223Z,33.66
2023-01-28T13:54:05.142Z,33.62
2023-01-28T13:56:41.547Z,33.67
2023-01-28T13:59:34.874Z,33.68
2023-01-28T14:02:34.963Z,33.76
2023-01-28T14:05:32.105Z,33.81
2023-01-28T14:08:29.650Z,33.87
2023-01-28T14:11:10.698Z,33.93
2023-01-28T14:14:07.053Z,33.98
2023-01-28T14:16:52.722Z,34.04
2023-01-28T14:19:33.111Z,34.10
2023-01-28T14:22:09.362Z,34.17
2023-01-28T14:24:41.290Z,34.23
2023-01-28T14:27:36.477Z,34.30
2023-01-28T14:30:28.937Z,34.36
2023-01-28T14:33:00.841Z,34.44
2023-01-28T14:35:35.208Z,34.53
2023-01-28T14:38:16.618Z,34.59
2023-01-28T14:40:55.734Z,34.65
2023-01-28T14:43:27.973Z,34.73
2023-01-28T14:45:59.776Z,34.81
2023-01-28T14:49:09.516Z,34.89
2023-01-28T14:52:04.491Z,34.93
2023-01-28T14:54:43.314Z,35.02
2023-01-28T14:57:23.784Z,35.11
2023-01-28T14:59:58.468Z,35.18
2023-01-28T15:02:31.722Z,35.27
2023-01-28T15:05:14.293Z,35.36
2023-01-28T15:07:49.181Z,35.40
2023-01-28T15:10:26.360Z,35.50
2023-01-28T15:13:24.628Z,35.57
2023-01-28T15:15:58.605Z,35.62
2023-01-28T15:18:37.301Z,35.73
2023-01-28T15:21:09.316Z,35.80
2023-01-28T15:23:44.051Z,35.86
2023-01-28T15:26:19.525Z,35.94
2023-01-28T15:28:52.774Z,36.01
2023-01-28T15:31:30.369Z,36.07
2023-01-28T15:34:04.486Z,36.13
2023-01-28T15:36:37.420Z,36.22
2023-01-28T15:39:15.427Z,36.26
2023-01-28T15:42:02.236Z,36.14
2023-01-28T15:44:37.226Z,36.33
2023-01-28T15:47:26.355Z,36.46
2023-01-28T15:50:01.729Z,36.49
2023-01-28T15:52:39.781Z,36.60
2023-01-28T15:55:27.484Z,36.67
2023-01-28T15:58:16.140Z,36.71
2023-01-28T16:00:48.821Z,36.78
2023-01-28T16:03:22.135Z,36.87
2023-01-28T16:05:58.465Z,36.94
2023-01-28T16:08:37.538Z,36.99
2023-01-28T16:11:10.401Z,37.07
2023-01-28T16:13:45.016Z,37.15
2023-01-28T16:16:34.727Z,37.21
2023-01-28T16:19:07.738Z,37.24
2023-01-28T16:21:45.533Z,37.33
2023-01-28T16:24:32.392Z,37.37
2023-01-28T16:27:23.990Z,37.36
2023-01-28T16:29:55.882Z,37.35
2023-01-28T16:32:29.655Z,37.34
2023-01-28T16:35:02.465Z,37.28
2023-01-28T16:37:34.366Z,37.19
2023-01-28T16:40:07.170Z,37.09
2023-01-28T16:42:39.076Z,36.97
2023-01-28T16:45:18.830Z,36.84
2023-01-28T16:47:52.026Z,36.68
2023-01-28T16:50:23.845Z,36.52
2023-01-28T16:52:56.482Z,36.44
2023-01-28T16:55:28.454Z,36.16
2023-01-28T16:58:02.559Z,35.95
2023-01-28T17:00:36.840Z,35.75
2023-01-28T17:03:08.969Z,35.54
2023-01-28T17:05:40.938Z,35.34
2023-01-28T17:08:12.949Z,35.17
2023-01-28T17:10:44.902Z,35.02
2023-01-28T17:13:16.882Z,34.89
2023-01-28T17:15:49.056Z,34.75
2023-01-28T17:18:21.195Z,34.66
2023-01-28T17:20:53.137Z,34.57
2023-01-28T17:23:25.146Z,34.49
2023-01-28T17:25:57.142Z,34.43
2023-01-28T17:28:29.003Z,34.38
2023-01-28T17:31:05.507Z,34.34
2023-01-28T17:33:38.246Z,34.32
2023-01-28T17:36:10.471Z,34.29
2023-01-28T17:38:45.497Z,34.29
2023-01-28T17:41:17.917Z,34.27
2023-01-28T17:43:56.576Z,34.28
2023-01-28T17:46:28.531Z,34.29
2023-01-28T17:49:02.147Z,34.28
2023-01-28T17:51:34.108Z,34.29
2023-01-28T17:54:06.299Z,34.31
2023-01-28T17:56:39.069Z,34.36
2023-01-28T17:59:11.845Z,34.40
2023-01-28T18:01:44.626Z,34.43
2023-01-28T18:04:16.552Z,34.46
2023-01-28T18:06:49.492Z,34.49
2023-01-28T18:09:21.310Z,34.56
2023-01-28T18:11:53.252Z,34.66
2023-01-28T18:14:25.159Z,34.66
2023-01-28T18:16:57.093Z,34.71
2023-01-28T18:19:29.325Z,34.76
2023-01-28T18:22:01.332Z,34.81
2023-01-28T18:24:33.331Z,34.88
2023-01-28T18:27:05.384Z,34.92
2023-01-28T18:29:37.291Z,35.00
2023-01-28T18:32:09.309Z,35.06
2023-01-28T18:34:41.255Z,35.13
2023-01-28T18:37:13.153Z,35.19
2023-01-28T18:39:45.059Z,35.25
2023-01-28T18:42:16.990Z,35.33
2023-01-28T18:44:48.920Z,35.39
2023-01-28T18:47:20.860Z,35.47
2023-01-28T18:49:52.739Z,35.51
2023-01-28T18:52:24.634Z,35.60
2023-01-28T18:54:57.798Z,35.65
2023-01-28T18:57:29.781Z,35.72
2023-01-28T19:00:01.733Z,35.79
2023-01-28T19:02:33.744Z,35.84
2023-01-28T19:05:05.784Z,35.89
2023-01-28T19:07:37.754Z,35.96
2023-01-28T19:10:10.102Z,36.02
2023-01-28T19:12:42.056Z,36.07
2023-01-28T19:15:14.263Z,36.14
2023-01-28T19:17:46.410Z,36.20
2023-01-28T19:20:18.829Z,36.26
2023-01-28T19:22:50.787Z,36.33
2023-01-28T19:25:22.713Z,36.38
2023-01-28T19:27:55.323Z,36.43
2023-01-28T19:30:27.264Z,36.49
2023-01-28T19:33:00.229Z,36.55
2023-01-28T19:35:33.682Z,36.57
2023-01-28T19:38:05.742Z,36.47
2023-01-28T19:40:40.464Z,36.66
2023-01-28T19:43:12.366Z,36.72
2023-01-28T19:45:44.273Z,36.81
2023-01-28T19:48:16.164Z,36.86
2023-01-28T19:50:48.079Z,36.90
2023-01-28T19:53:20.191Z,36.97
2023-01-28T19:55:52.401Z,37.00
2023-01-28T19:58:24.408Z,37.04
2023-01-28T20:01:07.410Z,37.11
2023-01-28T20:03:39.795Z,37.13
2023-01-28T20:06:16.756Z,37.19
2023-01-28T20:08:53.491Z,37.25
2023-01-28T20:11:25.853Z,37.36
2023-01-28T20:13:57.914Z,37.46
2023-01-28T20:16:31.981Z,37.50
2023-01-28T20:19:06.973Z,37.56
2023-01-28T20:21:38.912Z,37.62
2023-01-28T20:24:15.488Z,37.63
2023-01-28T20:26:47.500Z,37.62
2023-01-28T20:29:20.835Z,37.60
2023-01-28T20:32:09.332Z,37.54
2023-01-28T20:34:45.043Z,37.44
2023-01-28T20:37:16.937Z,37.34
2023-01-28T20:39:48.878Z,37.22
2023-01-28T20:42:20.935Z,37.08
2023-01-28T20:44:52.957Z,36.93
2023-01-28T20:47:24.849Z,36.76
2023-01-28T20:49:56.808Z,36.56
2023-01-28T20:52:28.689Z,36.36
2023-01-28T20:55:01.883Z,36.18
2023-01-28T20:57:33.750Z,35.98
2023-01-28T21:00:06.946Z,35.78
2023-01-28T21:02:40.953Z,35.56
2023-01-28T21:05:13.479Z,35.40
2023-01-28T21:07:45.385Z,35.23
2023-01-28T21:10:17.832Z,35.07
2023-01-28T21:12:50.228Z,34.95
2023-01-28T21:15:22.171Z,34.83
2023-01-28T21:17:54.100Z,34.74
2023-01-28T21:20:25.993Z,34.65
2023-01-28T21:22:58.032Z,34.57
2023-01-28T21:25:32.598Z,34.51
2023-01-28T21:28:04.838Z,34.48
2023-01-28T21:30:37.001Z,34.42
2023-01-28T21:33:09.479Z,34.38
2023-01-28T21:35:43.832Z,34.38
2023-01-28T21:38:15.736Z,34.37
2023-01-28T21:40:47.626Z,34.34
2023-01-28T21:43:19.763Z,34.35
2023-01-28T21:45:55.876Z,34.36
2023-01-28T21:48:27.855Z,34.36
2023-01-28T21:51:26.301Z,34.39
2023-01-28T21:53:58.359Z,34.47
2023-01-28T21:56:30.463Z,34.45
2023-01-28T21:59:21.320Z,34.49
2023-01-28T22:01:53.458Z,34.55
2023-01-28T22:04:31.537Z,34.56
2023-01-28T22:07:06.349Z,34.60
2023-01-28T22:09:38.968Z,34.66
2023-01-28T22:12:11.764Z,34.71
2023-01-28T22:14:44.395Z,34.75
2023-01-28T22:17:19.396Z,34.80
2023-01-28T22:19:51.329Z,34.85
2023-01-28T22:22:23.335Z,34.91
2023-01-28T22:24:55.298Z,34.94
2023-01-28T22:27:28.762Z,35.02
2023-01-28T22:30:00.984Z,35.06
2023-01-28T22:32:32.926Z,35.14
2023-01-28T22:35:05.178Z,35.18
2023-01-28T22:37:37.782Z,35.23
2023-01-28T22:40:10.257Z,35.29
2023-01-28T22:42:42.138Z,35.36
2023-01-28T22:45:14.074Z,35.44
2023-01-28T22:47:46.369Z,35.47
2023-01-28T22:50:18.776Z,35.55
2023-01-28T22:52:52.368Z,35.60
2023-01-28T22:55:24.619Z,35.66
2023-01-28T22:57:56.533Z,35.72
2023-01-28T23:00:28.547Z,35.76
2023-01-28T23:03:01.955Z,35.83
2023-01-28T23:05:33.884Z,35.90
2023-01-28T23:08:12.223Z,35.96
2023-01-28T23:10:53.478Z,36.02
2023-01-28T23:13:26.874Z,36.07
2023-01-28T23:16:17.667Z,36.15
2023-01-28T23:19:08.081Z,36.18
2023-01-28T23:22:01.427Z,36.23
2023-01-28T23:24:33.954Z,36.28
2023-01-28T23:27:05.867Z,36.37
2023-01-28T23:29:37.827Z,36.44
2023-01-28T23:32:11.138Z,36.50
2023-01-28T23:34:46.859Z,36.56
2023-01-28T23:37:18.910Z,36.59
2023-01-28T23:39:50.842Z,36.63
2023-01-28T23:42:23.897Z,36.69
2023-01-28T23:44:55.644Z,36.69
2023-01-28T23:47:27.815Z,36.60
2023-01-28T23:49:59.858Z,36.76
2023-01-28T23:52:32.086Z,36.83
2023-01-28T23:55:04.521Z,36.91
2023-01-28T23:57:37.061Z,36.94
